sensor_id;sensor_type;location;lat;lon;timestamp;P1;durP1;ratioP1;P2;durP2;ratioP2
37609;SDS011;23457;51.966;8.230;2022-07-06T00:02:01;1.50;;;0.90;;
37609;SDS011;23457;51.966;8.230;2022-07-06T00:04:28;2.45;;;1.25;;
37609;SDS011;23457;51.966;8.230;2022-07-06T00:06:55;3.53;;;1.33;;
37609;SDS011;23457;51.966;8.230;2022-07-06T00:09:21;3.22;;;1.20;;
37609;SDS011;23457;51.966;8.230;2022-07-06T00:11:48;4.05;;;1.42;;
37609;SDS011;23457;51.966;8.230;2022-07-06T00:14:14;2.35;;;1.20;;
37609;SDS011;23457;51.966;8.230;2022-07-06T00:16:41;2.38;;;1.20;;
37609;SDS011;23457;51.966;8.230;2022-07-06T00:19:08;3.45;;;1.60;;
37609;SDS011;23457;51.966;8.230;2022-07-06T00:21:34;2.65;;;1.30;;
37609;SDS011;23457;51.966;8.230;2022-07-06T00:24:01;6.25;;;1.60;;
37609;SDS011;23457;51.966;8.230;2022-07-06T00:26:27;4.13;;;1.70;;
37609;SDS011;23457;51.966;8.230;2022-07-06T00:28:54;4.95;;;1.38;;
37609;SDS011;23457;51.966;8.230;2022-07-06T00:31:20;1.80;;;1.38;;
37609;SDS011;23457;51.966;8.230;2022-07-06T00:33:47;1.70;;;1.00;;
37609;SDS011;23457;51.966;8.230;2022-07-06T00:36:13;4.07;;;1.63;;
37609;SDS011;23457;51.966;8.230;2022-07-06T00:38:40;3.67;;;1.50;;
37609;SDS011;23457;51.966;8.230;2022-07-06T00:41:06;2.67;;;1.50;;
37609;SDS011;23457;51.966;8.230;2022-07-06T00:43:46;2.88;;;1.30;;
37609;SDS011;23457;51.966;8.230;2022-07-06T00:46:28;2.60;;;1.55;;
37609;SDS011;23457;51.966;8.230;2022-07-06T00:48:57;4.00;;;1.50;;
37609;SDS011;23457;51.966;8.230;2022-07-06T00:51:31;2.42;;;1.27;;
37609;SDS011;23457;51.966;8.230;2022-07-06T00:54:02;4.03;;;1.40;;
37609;SDS011;23457;51.966;8.230;2022-07-06T00:56:30;3.15;;;1.35;;
37609;SDS011;23457;51.966;8.230;2022-07-06T00:59:00;2.60;;;1.30;;
37609;SDS011;23457;51.966;8.230;2022-07-06T01:01:28;7.53;;;1.50;;
37609;SDS011;23457;51.966;8.230;2022-07-06T01:03:55;4.38;;;1.40;;
37609;SDS011;23457;51.966;8.230;2022-07-06T01:06:21;4.85;;;1.45;;
37609;SDS011;23457;51.966;8.230;2022-07-06T01:08:48;3.67;;;1.55;;
37609;SDS011;23457;51.966;8.230;2022-07-06T01:11:16;3.38;;;1.40;;
37609;SDS011;23457;51.966;8.230;2022-07-06T01:13:44;3.97;;;1.30;;
37609;SDS011;23457;51.966;8.230;2022-07-06T01:16:11;2.75;;;1.42;;
37609;SDS011;23457;51.966;8.230;2022-07-06T01:18:38;4.60;;;1.60;;
37609;SDS011;23457;51.966;8.230;2022-07-06T01:21:15;4.88;;;1.92;;
37609;SDS011;23457;51.966;8.230;2022-07-06T01:23:42;6.50;;;1.70;;
37609;SDS011;23457;51.966;8.230;2022-07-06T01:26:14;5.57;;;1.75;;
37609;SDS011;23457;51.966;8.230;2022-07-06T01:28:42;3.50;;;1.55;;
37609;SDS011;23457;51.966;8.230;2022-07-06T01:31:15;2.63;;;1.40;;
37609;SDS011;23457;51.966;8.230;2022-07-06T01:33:44;3.17;;;1.80;;
37609;SDS011;23457;51.966;8.230;2022-07-06T01:36:11;3.90;;;1.60;;
37609;SDS011;23457;51.966;8.230;2022-07-06T01:38:47;4.28;;;1.58;;
37609;SDS011;23457;51.966;8.230;2022-07-06T01:41:18;3.80;;;1.40;;
37609;SDS011;23457;51.966;8.230;2022-07-06T01:43:46;4.32;;;2.08;;
37609;SDS011;23457;51.966;8.230;2022-07-06T01:46:13;3.97;;;1.52;;
37609;SDS011;23457;51.966;8.230;2022-07-06T01:48:40;2.88;;;1.30;;
37609;SDS011;23457;51.966;8.230;2022-07-06T01:51:07;4.43;;;1.60;;
37609;SDS011;23457;51.966;8.230;2022-07-06T01:53:34;3.80;;;1.88;;
37609;SDS011;23457;51.966;8.230;2022-07-06T01:56:01;5.10;;;1.70;;
37609;SDS011;23457;51.966;8.230;2022-07-06T01:58:28;6.68;;;1.80;;
37609;SDS011;23457;51.966;8.230;2022-07-06T02:00:54;5.88;;;1.40;;
37609;SDS011;23457;51.966;8.230;2022-07-06T02:03:21;4.22;;;1.63;;
37609;SDS011;23457;51.966;8.230;2022-07-06T02:05:48;4.07;;;1.85;;
37609;SDS011;23457;51.966;8.230;2022-07-06T02:08:15;3.63;;;1.30;;
37609;SDS011;23457;51.966;8.230;2022-07-06T02:10:41;6.25;;;2.03;;
37609;SDS011;23457;51.966;8.230;2022-07-06T02:13:08;2.92;;;1.45;;
37609;SDS011;23457;51.966;8.230;2022-07-06T02:15:34;3.50;;;1.60;;
37609;SDS011;23457;51.966;8.230;2022-07-06T02:18:01;5.53;;;1.60;;
37609;SDS011;23457;51.966;8.230;2022-07-06T02:20:27;3.60;;;1.77;;
37609;SDS011;23457;51.966;8.230;2022-07-06T02:22:54;6.72;;;2.75;;
37609;SDS011;23457;51.966;8.230;2022-07-06T02:25:20;4.72;;;1.73;;
37609;SDS011;23457;51.966;8.230;2022-07-06T02:27:47;7.40;;;2.10;;
37609;SDS011;23457;51.966;8.230;2022-07-06T02:30:13;4.68;;;2.03;;
37609;SDS011;23457;51.966;8.230;2022-07-06T02:32:40;7.30;;;2.30;;
37609;SDS011;23457;51.966;8.230;2022-07-06T02:35:06;5.43;;;1.83;;
37609;SDS011;23457;51.966;8.230;2022-07-06T02:37:33;7.43;;;2.28;;
37609;SDS011;23457;51.966;8.230;2022-07-06T02:40:00;7.85;;;2.20;;
37609;SDS011;23457;51.966;8.230;2022-07-06T02:42:27;7.60;;;2.03;;
37609;SDS011;23457;51.966;8.230;2022-07-06T02:44:54;5.00;;;2.13;;
37609;SDS011;23457;51.966;8.230;2022-07-06T02:47:20;3.95;;;1.92;;
37609;SDS011;23457;51.966;8.230;2022-07-06T02:49:47;5.57;;;2.10;;
37609;SDS011;23457;51.966;8.230;2022-07-06T02:52:14;4.07;;;2.00;;
37609;SDS011;23457;51.966;8.230;2022-07-06T02:54:40;5.30;;;2.00;;
37609;SDS011;23457;51.966;8.230;2022-07-06T02:57:07;4.97;;;1.90;;
37609;SDS011;23457;51.966;8.230;2022-07-06T02:59:33;4.95;;;2.00;;
37609;SDS011;23457;51.966;8.230;2022-07-06T03:02:00;3.15;;;1.92;;
37609;SDS011;23457;51.966;8.230;2022-07-06T03:04:26;5.65;;;2.22;;
37609;SDS011;23457;51.966;8.230;2022-07-06T03:06:53;8.27;;;2.25;;
37609;SDS011;23457;51.966;8.230;2022-07-06T03:09:19;4.35;;;2.13;;
37609;SDS011;23457;51.966;8.230;2022-07-06T03:11:46;4.28;;;2.05;;
37609;SDS011;23457;51.966;8.230;2022-07-06T03:14:13;3.78;;;2.20;;
37609;SDS011;23457;51.966;8.230;2022-07-06T03:16:39;5.93;;;2.05;;
37609;SDS011;23457;51.966;8.230;2022-07-06T03:19:10;6.13;;;2.30;;
37609;SDS011;23457;51.966;8.230;2022-07-06T03:21:37;5.07;;;2.30;;
37609;SDS011;23457;51.966;8.230;2022-07-06T03:24:04;4.57;;;2.28;;
37609;SDS011;23457;51.966;8.230;2022-07-06T03:26:31;4.38;;;2.60;;
37609;SDS011;23457;51.966;8.230;2022-07-06T03:28:57;6.78;;;2.80;;
37609;SDS011;23457;51.966;8.230;2022-07-06T03:31:24;7.93;;;2.42;;
37609;SDS011;23457;51.966;8.230;2022-07-06T03:33:51;9.30;;;2.38;;
37609;SDS011;23457;51.966;8.230;2022-07-06T03:36:17;9.45;;;2.45;;
37609;SDS011;23457;51.966;8.230;2022-07-06T03:38:44;9.02;;;2.63;;
37609;SDS011;23457;51.966;8.230;2022-07-06T03:41:11;9.25;;;2.28;;
37609;SDS011;23457;51.966;8.230;2022-07-06T03:43:37;9.13;;;2.50;;
37609;SDS011;23457;51.966;8.230;2022-07-06T03:46:04;6.45;;;2.60;;
37609;SDS011;23457;51.966;8.230;2022-07-06T03:48:30;4.55;;;2.35;;
37609;SDS011;23457;51.966;8.230;2022-07-06T03:50:57;6.25;;;3.08;;
37609;SDS011;23457;51.966;8.230;2022-07-06T03:53:23;6.57;;;3.47;;
37609;SDS011;23457;51.966;8.230;2022-07-06T03:55:50;10.55;;;3.75;;
37609;SDS011;23457;51.966;8.230;2022-07-06T03:58:35;7.00;;;4.07;;
37609;SDS011;23457;51.966;8.230;2022-07-06T04:01:02;8.32;;;4.05;;
37609;SDS011;23457;51.966;8.230;2022-07-06T04:03:28;7.85;;;3.97;;
37609;SDS011;23457;51.966;8.230;2022-07-06T04:05:59;5.97;;;4.22;;
37609;SDS011;23457;51.966;8.230;2022-07-06T04:08:26;6.50;;;3.83;;
37609;SDS011;23457;51.966;8.230;2022-07-06T04:10:52;9.45;;;4.20;;
37609;SDS011;23457;51.966;8.230;2022-07-06T04:13:19;8.60;;;3.70;;
37609;SDS011;23457;51.966;8.230;2022-07-06T04:15:45;5.32;;;3.50;;
37609;SDS011;23457;51.966;8.230;2022-07-06T04:18:12;8.27;;;4.38;;
37609;SDS011;23457;51.966;8.230;2022-07-06T04:20:39;7.10;;;3.47;;
37609;SDS011;23457;51.966;8.230;2022-07-06T04:23:06;6.63;;;3.38;;
37609;SDS011;23457;51.966;8.230;2022-07-06T04:25:32;6.38;;;3.72;;
37609;SDS011;23457;51.966;8.230;2022-07-06T04:28:00;7.18;;;3.53;;
37609;SDS011;23457;51.966;8.230;2022-07-06T04:30:27;6.15;;;3.85;;
37609;SDS011;23457;51.966;8.230;2022-07-06T04:32:53;9.20;;;3.75;;
37609;SDS011;23457;51.966;8.230;2022-07-06T04:35:21;5.68;;;4.13;;
37609;SDS011;23457;51.966;8.230;2022-07-06T04:37:48;7.80;;;3.70;;
37609;SDS011;23457;51.966;8.230;2022-07-06T04:40:15;7.63;;;4.00;;
37609;SDS011;23457;51.966;8.230;2022-07-06T04:42:44;7.93;;;3.97;;
37609;SDS011;23457;51.966;8.230;2022-07-06T04:45:11;7.25;;;3.75;;
37609;SDS011;23457;51.966;8.230;2022-07-06T04:47:38;7.55;;;3.72;;
37609;SDS011;23457;51.966;8.230;2022-07-06T04:50:05;8.35;;;3.40;;
37609;SDS011;23457;51.966;8.230;2022-07-06T04:52:32;6.63;;;3.60;;
37609;SDS011;23457;51.966;8.230;2022-07-06T04:54:59;9.60;;;3.78;;
37609;SDS011;23457;51.966;8.230;2022-07-06T04:57:25;4.05;;;3.22;;
37609;SDS011;23457;51.966;8.230;2022-07-06T04:59:52;5.60;;;3.53;;
37609;SDS011;23457;51.966;8.230;2022-07-06T05:02:18;7.75;;;3.40;;
37609;SDS011;23457;51.966;8.230;2022-07-06T05:04:45;8.25;;;3.05;;
37609;SDS011;23457;51.966;8.230;2022-07-06T05:07:12;5.88;;;3.08;;
37609;SDS011;23457;51.966;8.230;2022-07-06T05:09:39;8.43;;;3.63;;
37609;SDS011;23457;51.966;8.230;2022-07-06T05:12:05;7.30;;;3.28;;
37609;SDS011;23457;51.966;8.230;2022-07-06T05:14:33;7.53;;;3.08;;
37609;SDS011;23457;51.966;8.230;2022-07-06T05:16:59;8.85;;;3.53;;
37609;SDS011;23457;51.966;8.230;2022-07-06T05:19:26;8.27;;;3.25;;
37609;SDS011;23457;51.966;8.230;2022-07-06T05:21:52;7.50;;;3.10;;
37609;SDS011;23457;51.966;8.230;2022-07-06T05:24:19;10.02;;;3.58;;
37609;SDS011;23457;51.966;8.230;2022-07-06T05:26:46;5.65;;;3.10;;
37609;SDS011;23457;51.966;8.230;2022-07-06T05:29:12;8.85;;;3.28;;
37609;SDS011;23457;51.966;8.230;2022-07-06T05:31:39;8.13;;;3.65;;
37609;SDS011;23457;51.966;8.230;2022-07-06T05:34:05;6.40;;;3.25;;
37609;SDS011;23457;51.966;8.230;2022-07-06T05:36:32;7.60;;;3.35;;
37609;SDS011;23457;51.966;8.230;2022-07-06T05:38:58;8.43;;;3.72;;
37609;SDS011;23457;51.966;8.230;2022-07-06T05:41:25;6.10;;;3.42;;
37609;SDS011;23457;51.966;8.230;2022-07-06T05:43:56;5.68;;;3.20;;
37609;SDS011;23457;51.966;8.230;2022-07-06T05:46:23;8.18;;;3.47;;
37609;SDS011;23457;51.966;8.230;2022-07-06T05:48:50;4.82;;;3.60;;
37609;SDS011;23457;51.966;8.230;2022-07-06T05:51:35;7.38;;;3.17;;
37609;SDS011;23457;51.966;8.230;2022-07-06T05:54:01;7.15;;;2.95;;
37609;SDS011;23457;51.966;8.230;2022-07-06T05:56:28;5.80;;;2.65;;
37609;SDS011;23457;51.966;8.230;2022-07-06T05:58:54;6.60;;;2.85;;
37609;SDS011;23457;51.966;8.230;2022-07-06T06:01:21;8.38;;;2.72;;
37609;SDS011;23457;51.966;8.230;2022-07-06T06:03:47;5.15;;;2.42;;
37609;SDS011;23457;51.966;8.230;2022-07-06T06:06:14;9.13;;;3.13;;
37609;SDS011;23457;51.966;8.230;2022-07-06T06:08:40;7.53;;;2.40;;
37609;SDS011;23457;51.966;8.230;2022-07-06T06:11:07;8.10;;;2.88;;
37609;SDS011;23457;51.966;8.230;2022-07-06T06:16:03;6.10;;;2.55;;
37609;SDS011;23457;51.966;8.230;2022-07-06T06:18:30;7.82;;;2.75;;
37609;SDS011;23457;51.966;8.230;2022-07-06T06:21:02;3.72;;;2.58;;
37609;SDS011;23457;51.966;8.230;2022-07-06T06:23:29;7.35;;;2.75;;
37609;SDS011;23457;51.966;8.230;2022-07-06T06:25:55;6.05;;;2.45;;
37609;SDS011;23457;51.966;8.230;2022-07-06T06:28:22;11.43;;;2.40;;
37609;SDS011;23457;51.966;8.230;2022-07-06T06:30:49;5.43;;;2.20;;
37609;SDS011;23457;51.966;8.230;2022-07-06T06:33:17;12.82;;;2.42;;
37609;SDS011;23457;51.966;8.230;2022-07-06T06:35:48;7.68;;;2.40;;
37609;SDS011;23457;51.966;8.230;2022-07-06T06:38:17;8.30;;;2.50;;
37609;SDS011;23457;51.966;8.230;2022-07-06T06:40:49;3.83;;;2.13;;
37609;SDS011;23457;51.966;8.230;2022-07-06T06:43:15;7.85;;;2.80;;
37609;SDS011;23457;51.966;8.230;2022-07-06T06:45:42;6.05;;;2.05;;
37609;SDS011;23457;51.966;8.230;2022-07-06T06:48:08;3.38;;;2.10;;
37609;SDS011;23457;51.966;8.230;2022-07-06T06:50:42;5.40;;;1.95;;
37609;SDS011;23457;51.966;8.230;2022-07-06T06:53:08;4.97;;;2.00;;
37609;SDS011;23457;51.966;8.230;2022-07-06T06:55:35;4.90;;;2.10;;
37609;SDS011;23457;51.966;8.230;2022-07-06T06:58:02;4.90;;;2.08;;
37609;SDS011;23457;51.966;8.230;2022-07-06T07:00:28;6.80;;;2.85;;
37609;SDS011;23457;51.966;8.230;2022-07-06T07:02:55;6.15;;;1.83;;
37609;SDS011;23457;51.966;8.230;2022-07-06T07:05:22;6.20;;;1.83;;
37609;SDS011;23457;51.966;8.230;2022-07-06T07:07:49;7.43;;;2.40;;
37609;SDS011;23457;51.966;8.230;2022-07-06T07:10:16;7.20;;;1.73;;
37609;SDS011;23457;51.966;8.230;2022-07-06T07:12:46;6.07;;;1.90;;
37609;SDS011;23457;51.966;8.230;2022-07-06T07:15:13;7.00;;;1.95;;
37609;SDS011;23457;51.966;8.230;2022-07-06T07:17:41;2.60;;;1.55;;
37609;SDS011;23457;51.966;8.230;2022-07-06T07:20:08;7.30;;;1.75;;
37609;SDS011;23457;51.966;8.230;2022-07-06T07:22:35;6.30;;;1.67;;
37609;SDS011;23457;51.966;8.230;2022-07-06T07:25:02;3.95;;;1.58;;
37609;SDS011;23457;51.966;8.230;2022-07-06T07:27:30;5.53;;;1.67;;
37609;SDS011;23457;51.966;8.230;2022-07-06T07:29:56;3.90;;;1.58;;
37609;SDS011;23457;51.966;8.230;2022-07-06T07:32:23;5.93;;;1.73;;
37609;SDS011;23457;51.966;8.230;2022-07-06T07:34:51;5.63;;;1.60;;
37609;SDS011;23457;51.966;8.230;2022-07-06T07:37:28;6.18;;;1.65;;
37609;SDS011;23457;51.966;8.230;2022-07-06T07:39:55;11.65;;;2.08;;
37609;SDS011;23457;51.966;8.230;2022-07-06T07:42:21;4.55;;;1.55;;
37609;SDS011;23457;51.966;8.230;2022-07-06T07:44:48;5.25;;;1.65;;
37609;SDS011;23457;51.966;8.230;2022-07-06T07:47:15;4.43;;;1.60;;
37609;SDS011;23457;51.966;8.230;2022-07-06T07:49:42;4.63;;;1.20;;
37609;SDS011;23457;51.966;8.230;2022-07-06T07:52:08;4.93;;;1.48;;
37609;SDS011;23457;51.966;8.230;2022-07-06T07:54:36;3.95;;;1.23;;
37609;SDS011;23457;51.966;8.230;2022-07-06T07:57:10;5.18;;;1.17;;
37609;SDS011;23457;51.966;8.230;2022-07-06T07:59:52;7.82;;;1.30;;
37609;SDS011;23457;51.966;8.230;2022-07-06T08:02:19;7.25;;;1.10;;
37609;SDS011;23457;51.966;8.230;2022-07-06T08:04:45;5.00;;;0.98;;
37609;SDS011;23457;51.966;8.230;2022-07-06T08:07:12;4.80;;;1.20;;
37609;SDS011;23457;51.966;8.230;2022-07-06T08:09:42;6.72;;;1.58;;
37609;SDS011;23457;51.966;8.230;2022-07-06T08:12:09;7.85;;;1.10;;
37609;SDS011;23457;51.966;8.230;2022-07-06T08:14:36;7.43;;;1.38;;
37609;SDS011;23457;51.966;8.230;2022-07-06T08:17:04;5.22;;;1.30;;
37609;SDS011;23457;51.966;8.230;2022-07-06T08:19:31;7.93;;;1.33;;
37609;SDS011;23457;51.966;8.230;2022-07-06T08:21:57;5.55;;;1.33;;
37609;SDS011;23457;51.966;8.230;2022-07-06T08:24:27;5.20;;;0.80;;
37609;SDS011;23457;51.966;8.230;2022-07-06T08:29:21;3.55;;;0.90;;
37609;SDS011;23457;51.966;8.230;2022-07-06T08:31:48;3.35;;;0.98;;
37609;SDS011;23457;51.966;8.230;2022-07-06T08:34:30;3.38;;;0.85;;
37609;SDS011;23457;51.966;8.230;2022-07-06T08:36:59;8.45;;;1.30;;
37609;SDS011;23457;51.966;8.230;2022-07-06T08:39:26;5.53;;;1.05;;
37609;SDS011;23457;51.966;8.230;2022-07-06T08:41:53;5.90;;;1.40;;
37609;SDS011;23457;51.966;8.230;2022-07-06T08:44:22;3.88;;;1.35;;
37609;SDS011;23457;51.966;8.230;2022-07-06T08:46:50;5.40;;;1.10;;
37609;SDS011;23457;51.966;8.230;2022-07-06T08:49:18;6.75;;;1.00;;
37609;SDS011;23457;51.966;8.230;2022-07-06T08:51:47;5.63;;;1.00;;
37609;SDS011;23457;51.966;8.230;2022-07-06T08:54:15;6.60;;;1.08;;
37609;SDS011;23457;51.966;8.230;2022-07-06T08:56:47;8.90;;;1.38;;
37609;SDS011;23457;51.966;8.230;2022-07-06T08:59:15;7.00;;;1.10;;
37609;SDS011;23457;51.966;8.230;2022-07-06T09:01:42;3.78;;;1.08;;
37609;SDS011;23457;51.966;8.230;2022-07-06T09:04:13;5.75;;;1.25;;
37609;SDS011;23457;51.966;8.230;2022-07-06T09:06:52;5.53;;;1.08;;
37609;SDS011;23457;51.966;8.230;2022-07-06T09:09:23;8.98;;;1.30;;
37609;SDS011;23457;51.966;8.230;2022-07-06T09:12:03;3.10;;;1.10;;
37609;SDS011;23457;51.966;8.230;2022-07-06T09:14:37;3.97;;;1.00;;
37609;SDS011;23457;51.966;8.230;2022-07-06T09:17:11;3.92;;;1.25;;
37609;SDS011;23457;51.966;8.230;2022-07-06T09:19:42;4.18;;;0.95;;
37609;SDS011;23457;51.966;8.230;2022-07-06T09:22:34;5.32;;;0.80;;
37609;SDS011;23457;51.966;8.230;2022-07-06T09:25:13;5.25;;;0.95;;
37609;SDS011;23457;51.966;8.230;2022-07-06T09:27:45;7.90;;;0.88;;
37609;SDS011;23457;51.966;8.230;2022-07-06T09:30:14;6.97;;;1.00;;
37609;SDS011;23457;51.966;8.230;2022-07-06T09:32:43;4.60;;;0.90;;
37609;SDS011;23457;51.966;8.230;2022-07-06T09:38:19;4.30;;;1.00;;
37609;SDS011;23457;51.966;8.230;2022-07-06T09:40:58;7.60;;;1.00;;
37609;SDS011;23457;51.966;8.230;2022-07-06T09:43:35;4.10;;;0.90;;
37609;SDS011;23457;51.966;8.230;2022-07-06T09:46:08;3.90;;;0.90;;
37609;SDS011;23457;51.966;8.230;2022-07-06T09:48:46;3.47;;;0.85;;
37609;SDS011;23457;51.966;8.230;2022-07-06T09:51:13;3.53;;;0.80;;
37609;SDS011;23457;51.966;8.230;2022-07-06T09:53:45;3.90;;;1.08;;
37609;SDS011;23457;51.966;8.230;2022-07-06T09:56:20;4.45;;;0.90;;
37609;SDS011;23457;51.966;8.230;2022-07-06T09:58:50;7.68;;;1.50;;
37609;SDS011;23457;51.966;8.230;2022-07-06T10:01:28;8.35;;;1.13;;
37609;SDS011;23457;51.966;8.230;2022-07-06T10:04:01;3.60;;;1.08;;
37609;SDS011;23457;51.966;8.230;2022-07-06T10:06:37;5.53;;;1.02;;
37609;SDS011;23457;51.966;8.230;2022-07-06T10:09:08;3.58;;;0.70;;
37609;SDS011;23457;51.966;8.230;2022-07-06T10:11:49;6.63;;;0.88;;
37609;SDS011;23457;51.966;8.230;2022-07-06T10:14:30;2.95;;;0.73;;
37609;SDS011;23457;51.966;8.230;2022-07-06T10:17:00;7.28;;;1.00;;
37609;SDS011;23457;51.966;8.230;2022-07-06T10:19:34;4.88;;;1.00;;
37609;SDS011;23457;51.966;8.230;2022-07-06T10:22:02;3.63;;;0.60;;
37609;SDS011;23457;51.966;8.230;2022-07-06T10:24:39;3.30;;;0.90;;
37609;SDS011;23457;51.966;8.230;2022-07-06T10:27:14;3.42;;;0.90;;
37609;SDS011;23457;51.966;8.230;2022-07-06T10:29:42;5.32;;;0.90;;
37609;SDS011;23457;51.966;8.230;2022-07-06T10:32:13;6.88;;;0.80;;
37609;SDS011;23457;51.966;8.230;2022-07-06T10:34:58;5.28;;;1.13;;
37609;SDS011;23457;51.966;8.230;2022-07-06T10:37:34;6.60;;;0.70;;
37609;SDS011;23457;51.966;8.230;2022-07-06T10:40:28;5.45;;;0.75;;
37609;SDS011;23457;51.966;8.230;2022-07-06T10:43:17;4.63;;;0.70;;
37609;SDS011;23457;51.966;8.230;2022-07-06T10:48:17;4.13;;;0.80;;
37609;SDS011;23457;51.966;8.230;2022-07-06T10:50:52;4.30;;;0.80;;
37609;SDS011;23457;51.966;8.230;2022-07-06T10:53:28;3.45;;;0.80;;
37609;SDS011;23457;51.966;8.230;2022-07-06T10:56:01;5.43;;;0.82;;
37609;SDS011;23457;51.966;8.230;2022-07-06T10:58:38;8.32;;;0.82;;
37609;SDS011;23457;51.966;8.230;2022-07-06T11:01:10;3.15;;;0.80;;
37609;SDS011;23457;51.966;8.230;2022-07-06T11:03:39;4.10;;;0.60;;
37609;SDS011;23457;51.966;8.230;2022-07-06T11:06:22;3.67;;;0.90;;
37609;SDS011;23457;51.966;8.230;2022-07-06T11:08:57;4.10;;;1.00;;
37609;SDS011;23457;51.966;8.230;2022-07-06T11:14:11;3.80;;;0.80;;
37609;SDS011;23457;51.966;8.230;2022-07-06T11:19:23;4.82;;;0.90;;
37609;SDS011;23457;51.966;8.230;2022-07-06T11:21:52;5.50;;;0.82;;
37609;SDS011;23457;51.966;8.230;2022-07-06T11:24:31;3.90;;;0.65;;
37609;SDS011;23457;51.966;8.230;2022-07-06T11:27:00;4.32;;;0.85;;
37609;SDS011;23457;51.966;8.230;2022-07-06T11:29:28;5.82;;;1.10;;
37609;SDS011;23457;51.966;8.230;2022-07-06T11:32:02;1.73;;;0.60;;
37609;SDS011;23457;51.966;8.230;2022-07-06T11:34:31;6.90;;;0.90;;
37609;SDS011;23457;51.966;8.230;2022-07-06T11:37:01;2.95;;;0.70;;
37609;SDS011;23457;51.966;8.230;2022-07-06T11:39:57;2.58;;;0.88;;
37609;SDS011;23457;51.966;8.230;2022-07-06T11:45:41;4.75;;;0.77;;
37609;SDS011;23457;51.966;8.230;2022-07-06T11:48:18;1.38;;;0.40;;
37609;SDS011;23457;51.966;8.230;2022-07-06T11:50:58;4.75;;;0.60;;
37609;SDS011;23457;51.966;8.230;2022-07-06T11:53:41;5.47;;;0.75;;
37609;SDS011;23457;51.966;8.230;2022-07-06T11:56:20;2.70;;;0.90;;
37609;SDS011;23457;51.966;8.230;2022-07-06T11:58:57;4.78;;;0.60;;
37609;SDS011;23457;51.966;8.230;2022-07-06T12:01:25;2.70;;;0.70;;
37609;SDS011;23457;51.966;8.230;2022-07-06T12:03:57;6.22;;;1.00;;
37609;SDS011;23457;51.966;8.230;2022-07-06T12:06:26;2.67;;;0.50;;
37609;SDS011;23457;51.966;8.230;2022-07-06T12:08:57;4.97;;;0.93;;
37609;SDS011;23457;51.966;8.230;2022-07-06T12:11:26;5.28;;;0.70;;
37609;SDS011;23457;51.966;8.230;2022-07-06T12:13:55;2.40;;;0.77;;
37609;SDS011;23457;51.966;8.230;2022-07-06T12:16:30;2.13;;;0.45;;
37609;SDS011;23457;51.966;8.230;2022-07-06T12:18:57;1.52;;;0.43;;
37609;SDS011;23457;51.966;8.230;2022-07-06T12:21:30;2.97;;;0.40;;
37609;SDS011;23457;51.966;8.230;2022-07-06T12:23:57;3.85;;;0.70;;
37609;SDS011;23457;51.966;8.230;2022-07-06T12:26:25;4.22;;;0.70;;
37609;SDS011;23457;51.966;8.230;2022-07-06T12:29:02;5.80;;;1.35;;
37609;SDS011;23457;51.966;8.230;2022-07-06T12:31:32;3.28;;;0.63;;
37609;SDS011;23457;51.966;8.230;2022-07-06T12:34:03;2.25;;;0.60;;
37609;SDS011;23457;51.966;8.230;2022-07-06T12:36:31;1.77;;;0.50;;
37609;SDS011;23457;51.966;8.230;2022-07-06T12:39:13;1.48;;;0.60;;
37609;SDS011;23457;51.966;8.230;2022-07-06T12:41:45;4.00;;;0.75;;
37609;SDS011;23457;51.966;8.230;2022-07-06T12:44:19;4.80;;;0.77;;
37609;SDS011;23457;51.966;8.230;2022-07-06T12:46:48;5.50;;;0.80;;
37609;SDS011;23457;51.966;8.230;2022-07-06T12:49:22;3.08;;;0.52;;
37609;SDS011;23457;51.966;8.230;2022-07-06T12:51:53;5.47;;;0.60;;
37609;SDS011;23457;51.966;8.230;2022-07-06T12:54:20;3.25;;;0.70;;
37609;SDS011;23457;51.966;8.230;2022-07-06T12:57:01;5.22;;;0.73;;
37609;SDS011;23457;51.966;8.230;2022-07-06T13:05:10;211.77;;;9.02;;
37609;SDS011;23457;51.966;8.230;2022-07-06T13:07:42;5.70;;;0.70;;
37609;SDS011;23457;51.966;8.230;2022-07-06T13:10:11;3.63;;;0.60;;
37609;SDS011;23457;51.966;8.230;2022-07-06T13:12:40;3.63;;;0.50;;
37609;SDS011;23457;51.966;8.230;2022-07-06T13:15:07;4.35;;;0.60;;
37609;SDS011;23457;51.966;8.230;2022-07-06T13:17:35;1.75;;;0.60;;
37609;SDS011;23457;51.966;8.230;2022-07-06T13:20:07;3.22;;;0.60;;
37609;SDS011;23457;51.966;8.230;2022-07-06T13:22:34;3.53;;;0.70;;
37609;SDS011;23457;51.966;8.230;2022-07-06T13:25:02;2.20;;;0.32;;
37609;SDS011;23457;51.966;8.230;2022-07-06T13:27:29;4.05;;;0.60;;
37609;SDS011;23457;51.966;8.230;2022-07-06T13:29:56;1.27;;;0.30;;
37609;SDS011;23457;51.966;8.230;2022-07-06T13:32:22;4.07;;;0.70;;
37609;SDS011;23457;51.966;8.230;2022-07-06T13:34:49;1.80;;;0.43;;
37609;SDS011;23457;51.966;8.230;2022-07-06T13:37:16;1.40;;;0.50;;
37609;SDS011;23457;51.966;8.230;2022-07-06T13:39:43;4.57;;;0.50;;
37609;SDS011;23457;51.966;8.230;2022-07-06T13:42:09;1.35;;;0.43;;
37609;SDS011;23457;51.966;8.230;2022-07-06T13:44:36;4.88;;;0.52;;
37609;SDS011;23457;51.966;8.230;2022-07-06T13:47:02;2.95;;;1.02;;
37609;SDS011;23457;51.966;8.230;2022-07-06T13:49:29;1.95;;;0.50;;
37609;SDS011;23457;51.966;8.230;2022-07-06T13:51:57;1.67;;;0.28;;
37609;SDS011;23457;51.966;8.230;2022-07-06T13:54:30;1.98;;;0.40;;
37609;SDS011;23457;51.966;8.230;2022-07-06T13:56:57;2.15;;;0.50;;
37609;SDS011;23457;51.966;8.230;2022-07-06T13:59:24;2.40;;;0.35;;
37609;SDS011;23457;51.966;8.230;2022-07-06T14:01:50;1.98;;;0.45;;
37609;SDS011;23457;51.966;8.230;2022-07-06T14:04:32;2.30;;;0.57;;
37609;SDS011;23457;51.966;8.230;2022-07-06T14:07:02;3.10;;;0.50;;
37609;SDS011;23457;51.966;8.230;2022-07-06T14:09:29;1.83;;;0.57;;
37609;SDS011;23457;51.966;8.230;2022-07-06T14:11:55;1.13;;;0.43;;
37609;SDS011;23457;51.966;8.230;2022-07-06T14:14:22;1.23;;;0.40;;
37609;SDS011;23457;51.966;8.230;2022-07-06T14:16:48;5.47;;;0.52;;
37609;SDS011;23457;51.966;8.230;2022-07-06T14:19:17;2.78;;;0.60;;
37609;SDS011;23457;51.966;8.230;2022-07-06T14:21:47;3.85;;;0.60;;
37609;SDS011;23457;51.966;8.230;2022-07-06T14:24:14;2.45;;;0.30;;
37609;SDS011;23457;51.966;8.230;2022-07-06T14:26:41;2.20;;;0.50;;
37609;SDS011;23457;51.966;8.230;2022-07-06T14:29:07;3.45;;;0.85;;
37609;SDS011;23457;51.966;8.230;2022-07-06T14:31:34;0.98;;;0.30;;
37609;SDS011;23457;51.966;8.230;2022-07-06T14:34:01;6.00;;;0.70;;
37609;SDS011;23457;51.966;8.230;2022-07-06T14:36:27;3.67;;;0.68;;
37609;SDS011;23457;51.966;8.230;2022-07-06T14:38:54;2.03;;;0.63;;
37609;SDS011;23457;51.966;8.230;2022-07-06T14:41:20;2.30;;;0.50;;
37609;SDS011;23457;51.966;8.230;2022-07-06T14:43:48;3.85;;;0.70;;
37609;SDS011;23457;51.966;8.230;2022-07-06T14:46:14;3.55;;;0.57;;
37609;SDS011;23457;51.966;8.230;2022-07-06T14:48:41;1.38;;;0.43;;
37609;SDS011;23457;51.966;8.230;2022-07-06T14:51:08;2.28;;;0.40;;
37609;SDS011;23457;51.966;8.230;2022-07-06T14:53:35;3.63;;;0.50;;
37609;SDS011;23457;51.966;8.230;2022-07-06T14:56:01;1.35;;;0.40;;
37609;SDS011;23457;51.966;8.230;2022-07-06T14:58:28;4.85;;;0.50;;
37609;SDS011;23457;51.966;8.230;2022-07-06T15:00:55;1.98;;;0.50;;
37609;SDS011;23457;51.966;8.230;2022-07-06T15:03:24;4.22;;;0.88;;
37609;SDS011;23457;51.966;8.230;2022-07-06T15:05:52;1.92;;;0.70;;
37609;SDS011;23457;51.966;8.230;2022-07-06T15:08:19;3.10;;;0.73;;
37609;SDS011;23457;51.966;8.230;2022-07-06T15:10:45;3.40;;;0.63;;
37609;SDS011;23457;51.966;8.230;2022-07-06T15:13:12;5.60;;;0.85;;
37609;SDS011;23457;51.966;8.230;2022-07-06T15:15:39;2.65;;;0.40;;
37609;SDS011;23457;51.966;8.230;2022-07-06T15:18:24;5.22;;;0.88;;
37609;SDS011;23457;51.966;8.230;2022-07-06T15:20:58;3.58;;;0.50;;
37609;SDS011;23457;51.966;8.230;2022-07-06T15:23:25;3.30;;;0.60;;
37609;SDS011;23457;51.966;8.230;2022-07-06T15:25:53;3.47;;;0.60;;